Nail, Arkansas
Current Conditions -  °F | °C
As of 6:53 AM on Wednesday 22 Oct 2014 (Local Time) from KHRO Reporting Station
Clear Clear  
Wind Chill:   Ceiling: Unl
Heat Index:   Visibility: 10mi
Dew Point:   Wind: 7mph
Humidity: 97%   Direction: 130°SE
Pressure: 30.21"   Gusts: NA
Location:  35.8413°N, 93.3507°W
Report Text: KHRO 221153Z AUTO 13006KT 10SM CLR 08/08 A3021 RMK AO2 SLP225 T00830078 10128 20083 51012
Loading
Personal Weather Stations






























Interactive Weather Map
Tropical Storm Tracking
New forecast layout! Learn more

10-Day Weather Forecast

Advertisements
Track Severe Weather on mobile